Domov               UVHVVR             MKGP            O straneh              
ZDRAVSTVENO VARSTVO RASTLIN
  MREŽA AGROMET. POSTAJ
 ► PROGNOSTIČNA OBVESTILA
AGROMETEOROLOŠKI PODATKI -
ARSO
OBVLADOVANJE TVEGANJ ZARADI
NEUGODNIH VREMENSKIH RAZMER
  ► NARAVNE NESREČE
  ► SUŠA/MOČA
  ► NAMAKANJE
  ► ŽLED (gozdarstvo)
KARTOGRAFSKI PRIKAZI
SPLETNE POVEZAVE
PROJEKTI IN PUBLIKACIJE

AGROMETEOROLOŠKA MREŽA: VREMENSKE POSTAJE IN FENOLOŠKA OPAZOVANJA

Pregled podatkov za lokacijo Gabernik-Rogaška, meteorološka postaja 37800

Pregled senzorjev na lokaciji

ID Ime Zadnja
vrednost
Datum in čas
zadnje
spremembe
(Lokalni čas)
Tip
senzorja
1828 Omočenost lista (U) 0 U 21.8.2019 12:30 A730WET
4946 Padavine (mm) 0 mm 21.8.2019 12:30 Generic 0.2 mm
1827 Relativna vlaga 2 m (% RH) 67.4 % RH 21.8.2019 12:30 50YA
1826 Temperatura 2 m (°C) 20.95 °C 21.8.2019 12:30 50YA

Pregled podatkov zadnjih 24 ur

Zap.
št.
Datum in čas
(Centralno
evropski čas)
Gabernik-Rogaška
Omočenost
lista
Padavine Relativna
vlaga
2
m
Temperatura
2
m
1 21.8.2019 13:00
2 21.8.2019 12:30
3 21.8.2019 12:00
4 21.8.2019 11:30 0 0 67.4 21
5 21.8.2019 11:00 0 0 69.2 20.5
6 21.8.2019 10:30 0 0 70.8 21.2
7 21.8.2019 10:00 0 0 74.5 21.1
8 21.8.2019 09:30 0 0 76.5 21.1
9 21.8.2019 09:00 0 0 77.4 21.3
10 21.8.2019 08:30 0 0 78.1 21.4
11 21.8.2019 08:00 0 0 76.6 21.6
12 21.8.2019 07:30 0 0 77.9 21.6
13 21.8.2019 07:00 0 0 79 21.9
14 21.8.2019 06:30 0 0 80.7 22
15 21.8.2019 06:00 0 0 79.8 22.5
16 21.8.2019 05:30 0 0 77.9 23.1
17 21.8.2019 05:00 0 0 88.3 20.9
18 21.8.2019 04:30 0 0 89.8 20.5
19 21.8.2019 04:00 0 0 93.5 20.1
20 21.8.2019 03:30 0 0 90.7 20.8
21 21.8.2019 03:00 0 0 88.4 21.1
22 21.8.2019 02:30 0 0 90.7 20.7
23 21.8.2019 02:00 0 0 91.6 20.7
24 21.8.2019 01:30 0 0 87.8 21.4
25 21.8.2019 01:00 0 0 87.3 21.4
26 21.8.2019 00:30 0 0 86.9 21.5
27 21.8.2019 00:00 0 0 81.5 22.5
28 20.8.2019 23:30 0 0 79 23.2
29 20.8.2019 23:00 0 0 74.9 24.3
30 20.8.2019 22:30 0 0 73.9 24.6
31 20.8.2019 22:00 0 0 73.3 24.8
32 20.8.2019 21:30 0 0 73.5 24.7
33 20.8.2019 21:00 0 0 74.2 25
34 20.8.2019 20:30 0 0 73.9 25.2
35 20.8.2019 20:00 0 0 72.2 25.5
36 20.8.2019 19:30 0 0 70.2 25.8
37 20.8.2019 19:00 0 0 65.5 26.6
38 20.8.2019 18:30 0 0 59.1 28.9
39 20.8.2019 18:00 0 0 56.5 31.1
40 20.8.2019 17:30 0 0 55.8 31.9
41 20.8.2019 17:00 0 0 54 32.5
42 20.8.2019 16:30 0 0 56.2 32.2
43 20.8.2019 16:00 0 0 57.8 31.8
44 20.8.2019 15:30 0 0 57 31.6
45 20.8.2019 15:00 0 0 55.4 32.2
46 20.8.2019 14:30 0 0 53.4 32.6
47 20.8.2019 14:00 0 0 53.4 32.2
48 20.8.2019 13:30 0 0 57.2 31.6
© 2011 Ministrstvo za kmetijstvo, gozdarstvo in prehrano. Vse pravice pridržane.